sensor_id;sensor_type;location;lat;lon;timestamp;pressure;altitude;pressure_sealevel;temperature;humidity
29359;BME280;16347;53.232;6.556;2022-08-01T00:00:07;101516.88;;;21.39;72.35
29359;BME280;16347;53.232;6.556;2022-08-01T00:02:36;101519.66;;;21.39;71.88
29359;BME280;16347;53.232;6.556;2022-08-01T00:05:08;101520.50;;;21.33;71.93
29359;BME280;16347;53.232;6.556;2022-08-01T00:07:37;101526.91;;;21.33;72.08
29359;BME280;16347;53.232;6.556;2022-08-01T00:10:08;101525.19;;;21.19;72.65
29359;BME280;16347;53.232;6.556;2022-08-01T00:12:36;101524.75;;;21.16;72.69
29359;BME280;16347;53.232;6.556;2022-08-01T00:15:06;101520.94;;;21.23;73.08
29359;BME280;16347;53.232;6.556;2022-08-01T00:17:35;101526.03;;;21.13;72.62
29359;BME280;16347;53.232;6.556;2022-08-01T00:20:05;101526.03;;;21.13;73.01
29359;BME280;16347;53.232;6.556;2022-08-01T00:22:35;101530.50;;;21.14;73.48
29359;BME280;16347;53.232;6.556;2022-08-01T00:25:04;101535.16;;;21.07;73.62
29359;BME280;16347;53.232;6.556;2022-08-01T00:27:32;101536.47;;;21.11;73.10
29359;BME280;16347;53.232;6.556;2022-08-01T00:30:04;101544.50;;;21.06;73.14
29359;BME280;16347;53.232;6.556;2022-08-01T00:32:40;101545.16;;;21.08;73.17
29359;BME280;16347;53.232;6.556;2022-08-01T00:35:08;101543.91;;;21.17;73.05
29359;BME280;16347;53.232;6.556;2022-08-01T00:37:38;101549.44;;;21.11;73.05
29359;BME280;16347;53.232;6.556;2022-08-01T00:40:07;101551.34;;;21.10;73.34
29359;BME280;16347;53.232;6.556;2022-08-01T00:42:35;101548.81;;;21.15;73.16
29359;BME280;16347;53.232;6.556;2022-08-01T00:45:09;101549.44;;;21.17;73.30
29359;BME280;16347;53.232;6.556;2022-08-01T00:47:38;101546.06;;;21.15;73.35
29359;BME280;16347;53.232;6.556;2022-08-01T00:50:07;101546.44;;;21.12;73.23
29359;BME280;16347;53.232;6.556;2022-08-01T00:52:37;101544.50;;;21.06;73.51
29359;BME280;16347;53.232;6.556;2022-08-01T00:55:08;101551.97;;;21.12;72.74
29359;BME280;16347;53.232;6.556;2022-08-01T00:57:41;101543.91;;;21.17;72.87
29359;BME280;16347;53.232;6.556;2022-08-01T01:00:29;101549.22;;;21.12;72.47
29359;BME280;16347;53.232;6.556;2022-08-01T01:03:00;101543.47;;;21.14;71.99
29359;BME280;16347;53.232;6.556;2022-08-01T01:05:29;101545.81;;;21.10;72.07
29359;BME280;16347;53.232;6.556;2022-08-01T01:08:07;101548.97;;;21.01;72.10
29359;BME280;16347;53.232;6.556;2022-08-01T01:10:42;101550.59;;;20.82;72.84
29359;BME280;16347;53.232;6.556;2022-08-01T01:13:14;101551.69;;;20.81;72.28
29359;BME280;16347;53.232;6.556;2022-08-01T01:15:47;101548.06;;;20.80;72.58
29359;BME280;16347;53.232;6.556;2022-08-01T01:18:19;101552.94;;;20.78;72.47
29359;BME280;16347;53.232;6.556;2022-08-01T01:20:54;101557.22;;;20.81;72.47
29359;BME280;16347;53.232;6.556;2022-08-01T01:23:44;101552.53;;;20.81;72.82
29359;BME280;16347;53.232;6.556;2022-08-01T01:26:23;101544.28;;;20.88;72.33
29359;BME280;16347;53.232;6.556;2022-08-01T01:29:00;101554.88;;;20.84;72.32
29359;BME280;16347;53.232;6.556;2022-08-01T01:31:31;101551.69;;;20.74;72.22
29359;BME280;16347;53.232;6.556;2022-08-01T01:34:02;101548.25;;;20.79;72.13
29359;BME280;16347;53.232;6.556;2022-08-01T01:36:32;101565.28;;;20.76;72.15
29359;BME280;16347;53.232;6.556;2022-08-01T01:39:01;101563.38;;;20.83;71.92
29359;BME280;16347;53.232;6.556;2022-08-01T01:41:30;101557.22;;;20.81;72.09
29359;BME280;16347;53.232;6.556;2022-08-01T01:44:01;101556.38;;;20.80;72.12
29359;BME280;16347;53.232;6.556;2022-08-01T01:46:31;101563.16;;;20.78;72.13
29359;BME280;16347;53.232;6.556;2022-08-01T01:49:00;101570.78;;;20.76;72.00
29359;BME280;16347;53.232;6.556;2022-08-01T01:51:29;101561.22;;;20.78;71.77
29359;BME280;16347;53.232;6.556;2022-08-01T01:53:58;101569.72;;;20.70;71.63
29359;BME280;16347;53.232;6.556;2022-08-01T01:56:27;101573.09;;;20.66;71.71
29359;BME280;16347;53.232;6.556;2022-08-01T01:59:01;101576.31;;;20.69;71.33
29359;BME280;16347;53.232;6.556;2022-08-01T02:01:32;101577.78;;;20.72;71.12
29359;BME280;16347;53.232;6.556;2022-08-01T02:04:21;101587.59;;;20.74;71.26
29359;BME280;16347;53.232;6.556;2022-08-01T02:06:52;101582.28;;;20.73;70.87
29359;BME280;16347;53.232;6.556;2022-08-01T02:09:21;101583.78;;;20.82;71.14
29359;BME280;16347;53.232;6.556;2022-08-01T02:11:50;101588.91;;;20.85;70.72
29359;BME280;16347;53.232;6.556;2022-08-01T02:14:37;101593.59;;;20.91;69.84
29359;BME280;16347;53.232;6.556;2022-08-01T02:17:07;101589.75;;;20.92;69.79
29359;BME280;16347;53.232;6.556;2022-08-01T02:19:37;101592.50;;;20.85;69.70
29359;BME280;16347;53.232;6.556;2022-08-01T02:22:10;101597.41;;;20.90;69.40
29359;BME280;16347;53.232;6.556;2022-08-01T02:24:41;101587.41;;;20.89;69.40
29359;BME280;16347;53.232;6.556;2022-08-01T02:27:15;101589.75;;;20.85;69.31
29359;BME280;16347;53.232;6.556;2022-08-01T02:29:51;101590.16;;;20.82;69.62
29359;BME280;16347;53.232;6.556;2022-08-01T02:32:26;101599.50;;;20.68;69.40
29359;BME280;16347;53.232;6.556;2022-08-01T02:34:56;101606.47;;;20.58;69.63
29359;BME280;16347;53.232;6.556;2022-08-01T02:37:26;101605.13;;;20.47;70.19
29359;BME280;16347;53.232;6.556;2022-08-01T02:39:56;101606.44;;;20.51;70.70
29359;BME280;16347;53.232;6.556;2022-08-01T02:42:25;101607.91;;;20.54;70.52
29359;BME280;16347;53.232;6.556;2022-08-01T02:44:56;101607.06;;;20.53;70.17
29359;BME280;16347;53.232;6.556;2022-08-01T02:47:26;101610.66;;;20.47;70.53
29359;BME280;16347;53.232;6.556;2022-08-01T02:49:55;101606.78;;;20.41;70.21
29359;BME280;16347;53.232;6.556;2022-08-01T02:52:25;101603.63;;;20.44;70.15
29359;BME280;16347;53.232;6.556;2022-08-01T02:54:56;101605.31;;;20.45;69.56
29359;BME280;16347;53.232;6.556;2022-08-01T02:57:26;101607.59;;;20.35;69.77
29359;BME280;16347;53.232;6.556;2022-08-01T03:00:18;101605.28;;;20.39;69.77
29359;BME280;16347;53.232;6.556;2022-08-01T03:02:50;101610.44;;;20.48;69.16
29359;BME280;16347;53.232;6.556;2022-08-01T03:05:24;101614.22;;;20.34;68.98
29359;BME280;16347;53.232;6.556;2022-08-01T03:07:55;101609.13;;;20.38;69.10
29359;BME280;16347;53.232;6.556;2022-08-01T03:10:30;101607.88;;;20.47;69.32
29359;BME280;16347;53.232;6.556;2022-08-01T03:13:00;101614.47;;;20.46;68.38
29359;BME280;16347;53.232;6.556;2022-08-01T03:15:32;101615.47;;;20.38;68.32
29359;BME280;16347;53.232;6.556;2022-08-01T03:18:02;101620.22;;;20.44;68.78
29359;BME280;16347;53.232;6.556;2022-08-01T03:20:33;101631.03;;;20.46;68.50
29359;BME280;16347;53.232;6.556;2022-08-01T03:23:04;101628.28;;;20.46;68.45
29359;BME280;16347;53.232;6.556;2022-08-01T03:25:35;101628.72;;;20.50;68.29
29359;BME280;16347;53.232;6.556;2022-08-01T03:28:06;101636.56;;;20.46;68.49
29359;BME280;16347;53.232;6.556;2022-08-01T03:30:37;101635.75;;;20.52;68.26
29359;BME280;16347;53.232;6.556;2022-08-01T03:33:05;101646.78;;;20.52;68.17
29359;BME280;16347;53.232;6.556;2022-08-01T03:35:36;101638.50;;;20.52;67.96
29359;BME280;16347;53.232;6.556;2022-08-01T03:38:08;101640.41;;;20.52;67.87
29359;BME280;16347;53.232;6.556;2022-08-01T03:40:45;101634.09;;;20.58;68.17
29359;BME280;16347;53.232;6.556;2022-08-01T03:43:15;101634.81;;;20.79;67.87
29359;BME280;16347;53.232;6.556;2022-08-01T03:45:49;101632.81;;;20.60;67.46
29359;BME280;16347;53.232;6.556;2022-08-01T03:48:18;101630.75;;;20.75;67.80
29359;BME280;16347;53.232;6.556;2022-08-01T03:50:48;101624.72;;;20.59;67.72
29359;BME280;16347;53.232;6.556;2022-08-01T03:53:20;101633.22;;;20.57;68.12
29359;BME280;16347;53.232;6.556;2022-08-01T03:55:50;101633.41;;;20.56;67.83
29359;BME280;16347;53.232;6.556;2022-08-01T03:58:20;101633.22;;;20.57;68.07
29359;BME280;16347;53.232;6.556;2022-08-01T04:00:50;101631.31;;;20.58;67.70
29359;BME280;16347;53.232;6.556;2022-08-01T04:03:19;101642.34;;;20.51;67.91
29359;BME280;16347;53.232;6.556;2022-08-01T04:05:47;101634.22;;;20.43;67.36
29359;BME280;16347;53.232;6.556;2022-08-01T04:08:15;101640.81;;;20.48;68.06
29359;BME280;16347;53.232;6.556;2022-08-01T04:10:43;101642.38;;;20.58;67.83
29359;BME280;16347;53.232;6.556;2022-08-01T04:13:11;101638.53;;;20.59;67.40
29359;BME280;16347;53.232;6.556;2022-08-01T04:15:40;101639.81;;;20.56;66.95
29359;BME280;16347;53.232;6.556;2022-08-01T04:18:09;101648.31;;;20.55;66.92
29359;BME280;16347;53.232;6.556;2022-08-01T04:20:37;101657.16;;;20.43;66.86
29359;BME280;16347;53.232;6.556;2022-08-01T04:23:06;101659.25;;;20.41;66.43
29359;BME280;16347;53.232;6.556;2022-08-01T04:25:36;101665.66;;;20.42;66.80
29359;BME280;16347;53.232;6.556;2022-08-01T04:28:07;101664.59;;;20.43;66.39
29359;BME280;16347;53.232;6.556;2022-08-01T04:30:44;101674.84;;;20.49;66.27
29359;BME280;16347;53.232;6.556;2022-08-01T04:33:15;101672.06;;;20.49;66.27
29359;BME280;16347;53.232;6.556;2022-08-01T04:35:47;101675.09;;;20.54;66.12
29359;BME280;16347;53.232;6.556;2022-08-01T04:38:32;101677.63;;;20.56;65.96
29359;BME280;16347;53.232;6.556;2022-08-01T04:41:03;101683.66;;;20.72;65.69
29359;BME280;16347;53.232;6.556;2022-08-01T04:43:35;101686.59;;;20.58;65.72
29359;BME280;16347;53.232;6.556;2022-08-01T04:46:04;101681.69;;;20.60;65.28
29359;BME280;16347;53.232;6.556;2022-08-01T04:48:37;101694.16;;;20.49;65.53
29359;BME280;16347;53.232;6.556;2022-08-01T04:51:11;101692.06;;;20.51;65.64
29359;BME280;16347;53.232;6.556;2022-08-01T04:53:40;101694.38;;;20.48;65.65
29359;BME280;16347;53.232;6.556;2022-08-01T04:56:09;101681.84;;;20.52;65.70
29359;BME280;16347;53.232;6.556;2022-08-01T04:58:39;101689.34;;;20.58;65.69
29359;BME280;16347;53.232;6.556;2022-08-01T05:01:09;101693.59;;;20.60;65.52
29359;BME280;16347;53.232;6.556;2022-08-01T05:03:38;101695.09;;;20.63;65.45
29359;BME280;16347;53.232;6.556;2022-08-01T05:06:06;101696.81;;;20.64;64.66
29359;BME280;16347;53.232;6.556;2022-08-01T05:08:35;101698.72;;;20.63;64.71
29359;BME280;16347;53.232;6.556;2022-08-01T05:11:03;101698.28;;;20.60;64.69
29359;BME280;16347;53.232;6.556;2022-08-01T05:13:31;101705.53;;;20.61;64.98
29359;BME280;16347;53.232;6.556;2022-08-01T05:16:00;101704.44;;;20.62;64.40
29359;BME280;16347;53.232;6.556;2022-08-01T05:18:30;101706.81;;;20.65;64.49
29359;BME280;16347;53.232;6.556;2022-08-01T05:21:00;101709.59;;;20.65;64.07
29359;BME280;16347;53.232;6.556;2022-08-01T05:23:28;101719.56;;;20.66;64.21
29359;BME280;16347;53.232;6.556;2022-08-01T05:26:08;101721.91;;;20.69;64.18
29359;BME280;16347;53.232;6.556;2022-08-01T05:28:36;101715.75;;;20.67;64.15
29359;BME280;16347;53.232;6.556;2022-08-01T05:31:04;101721.25;;;20.60;63.57
29359;BME280;16347;53.232;6.556;2022-08-01T05:33:32;101724.88;;;20.61;64.08
29359;BME280;16347;53.232;6.556;2022-08-01T05:36:01;101725.06;;;20.59;63.96
29359;BME280;16347;53.232;6.556;2022-08-01T05:38:29;101733.16;;;20.61;64.00
29359;BME280;16347;53.232;6.556;2022-08-01T05:40:57;101730.59;;;20.59;63.43
29359;BME280;16347;53.232;6.556;2022-08-01T05:43:25;101733.56;;;20.58;62.99
29359;BME280;16347;53.232;6.556;2022-08-01T05:45:55;101733.72;;;20.50;62.41
29359;BME280;16347;53.232;6.556;2022-08-01T05:48:23;101732.84;;;20.49;62.20
29359;BME280;16347;53.232;6.556;2022-08-01T05:50:51;101745.75;;;20.42;61.87
29359;BME280;16347;53.232;6.556;2022-08-01T05:53:25;101730.84;;;20.36;61.63
29359;BME280;16347;53.232;6.556;2022-08-01T05:55:54;101741.56;;;20.25;61.57
29359;BME280;16347;53.232;6.556;2022-08-01T05:58:22;101739.59;;;20.19;61.38
29359;BME280;16347;53.232;6.556;2022-08-01T06:00:50;101746.63;;;20.21;61.29
29359;BME280;16347;53.232;6.556;2022-08-01T06:03:18;101737.66;;;20.13;60.94
29359;BME280;16347;53.232;6.556;2022-08-01T06:05:46;101744.44;;;20.10;61.17
29359;BME280;16347;53.232;6.556;2022-08-01T06:08:15;101741.44;;;20.12;61.26
29359;BME280;16347;53.232;6.556;2022-08-01T06:10:48;101742.97;;;20.14;61.81
29359;BME280;16347;53.232;6.556;2022-08-01T06:13:18;101740.00;;;20.16;61.89
29359;BME280;16347;53.232;6.556;2022-08-01T06:15:48;101745.06;;;20.12;61.73
29359;BME280;16347;53.232;6.556;2022-08-01T06:18:17;101741.25;;;20.13;61.58
29359;BME280;16347;53.232;6.556;2022-08-01T06:20:48;101737.81;;;20.11;61.17
29359;BME280;16347;53.232;6.556;2022-08-01T06:23:20;101749.72;;;20.12;60.97
29359;BME280;16347;53.232;6.556;2022-08-01T06:26:01;101753.50;;;20.04;60.58
29359;BME280;16347;53.232;6.556;2022-08-01T06:28:31;101749.69;;;20.05;60.37
29359;BME280;16347;53.232;6.556;2022-08-01T06:31:02;101766.00;;;20.00;60.02
29359;BME280;16347;53.232;6.556;2022-08-01T06:33:35;101757.72;;;20.00;60.19
29359;BME280;16347;53.232;6.556;2022-08-01T06:36:06;101757.31;;;20.03;60.28
29359;BME280;16347;53.232;6.556;2022-08-01T06:38:35;101761.19;;;20.09;59.88
29359;BME280;16347;53.232;6.556;2022-08-01T06:41:07;101764.84;;;20.16;59.59
29359;BME280;16347;53.232;6.556;2022-08-01T06:43:37;101775.03;;;20.15;59.54
29359;BME280;16347;53.232;6.556;2022-08-01T06:46:07;101778.47;;;20.17;59.85
29359;BME280;16347;53.232;6.556;2022-08-01T06:48:37;101766.56;;;20.17;59.39
29359;BME280;16347;53.232;6.556;2022-08-01T06:51:09;101778.25;;;20.19;58.95
29359;BME280;16347;53.232;6.556;2022-08-01T06:53:42;101776.47;;;20.11;59.37
29359;BME280;16347;53.232;6.556;2022-08-01T06:56:14;101780.78;;;20.14;59.16
29359;BME280;16347;53.232;6.556;2022-08-01T06:58:45;101787.09;;;20.08;59.04
29359;BME280;16347;53.232;6.556;2022-08-01T07:01:17;101786.50;;;20.12;59.53
29359;BME280;16347;53.232;6.556;2022-08-01T07:03:48;101780.72;;;20.07;58.56
29359;BME280;16347;53.232;6.556;2022-08-01T07:06:22;101792.56;;;20.01;59.06
29359;BME280;16347;53.232;6.556;2022-08-01T07:08:53;101792.09;;;19.98;58.78
29359;BME280;16347;53.232;6.556;2022-08-01T07:11:37;101793.59;;;20.00;58.64
29359;BME280;16347;53.232;6.556;2022-08-01T07:14:08;101796.53;;;19.98;58.67
29359;BME280;16347;53.232;6.556;2022-08-01T07:16:38;101792.47;;;19.94;58.44
29359;BME280;16347;53.232;6.556;2022-08-01T07:19:09;101784.41;;;19.93;58.54
29359;BME280;16347;53.232;6.556;2022-08-01T07:21:41;101791.34;;;19.89;58.00
29359;BME280;16347;53.232;6.556;2022-08-01T07:24:13;101798.94;;;19.80;58.36
29359;BME280;16347;53.232;6.556;2022-08-01T07:26:49;101793.72;;;19.92;58.52
29359;BME280;16347;53.232;6.556;2022-08-01T07:29:24;101792.41;;;19.88;57.42
29359;BME280;16347;53.232;6.556;2022-08-01T07:31:55;101790.72;;;19.87;57.71
29359;BME280;16347;53.232;6.556;2022-08-01T07:34:26;101800.75;;;19.94;58.04
29359;BME280;16347;53.232;6.556;2022-08-01T07:36:56;101803.59;;;20.01;57.58
29359;BME280;16347;53.232;6.556;2022-08-01T07:39:25;101799.44;;;20.12;57.49
29359;BME280;16347;53.232;6.556;2022-08-01T07:41:56;101804.78;;;20.13;57.15
29359;BME280;16347;53.232;6.556;2022-08-01T07:44:35;101803.88;;;20.27;57.13
29359;BME280;16347;53.232;6.556;2022-08-01T07:47:04;101819.84;;;20.32;56.24
29359;BME280;16347;53.232;6.556;2022-08-01T07:49:35;101806.69;;;20.34;55.70
29359;BME280;16347;53.232;6.556;2022-08-01T07:52:07;101809.25;;;20.35;55.30
29359;BME280;16347;53.232;6.556;2022-08-01T07:54:37;101812.00;;;20.35;55.27
29359;BME280;16347;53.232;6.556;2022-08-01T07:57:09;101814.81;;;20.42;55.56
29359;BME280;16347;53.232;6.556;2022-08-01T07:59:38;101813.38;;;20.46;55.04
29359;BME280;16347;53.232;6.556;2022-08-01T08:02:09;101826.16;;;20.47;55.69
29359;BME280;16347;53.232;6.556;2022-08-01T08:04:40;101818.00;;;20.39;55.36
29359;BME280;16347;53.232;6.556;2022-08-01T08:07:15;101823.06;;;20.35;54.59
29359;BME280;16347;53.232;6.556;2022-08-01T08:09:51;101832.03;;;20.37;55.31
29359;BME280;16347;53.232;6.556;2022-08-01T08:12:35;101828.97;;;20.32;54.28
29359;BME280;16347;53.232;6.556;2022-08-01T08:15:07;101832.16;;;20.29;54.06
29359;BME280;16347;53.232;6.556;2022-08-01T08:17:37;101835.47;;;20.46;54.63
29359;BME280;16347;53.232;6.556;2022-08-01T08:20:08;101849.28;;;20.46;53.63
29359;BME280;16347;53.232;6.556;2022-08-01T08:22:40;101839.56;;;20.50;53.91
29359;BME280;16347;53.232;6.556;2022-08-01T08:25:09;101845.38;;;20.62;53.44
29359;BME280;16347;53.232;6.556;2022-08-01T08:27:41;101840.06;;;20.60;52.65
29359;BME280;16347;53.232;6.556;2022-08-01T08:30:15;101842.25;;;20.65;52.26
29359;BME280;16347;53.232;6.556;2022-08-01T08:32:45;101846.22;;;20.62;51.68
29359;BME280;16347;53.232;6.556;2022-08-01T08:35:15;101849.81;;;20.56;51.53
29359;BME280;16347;53.232;6.556;2022-08-01T08:38:06;101853.16;;;20.52;52.19
29359;BME280;16347;53.232;6.556;2022-08-01T08:40:38;101844.03;;;20.51;52.82
29359;BME280;16347;53.232;6.556;2022-08-01T08:43:12;101843.88;;;20.59;53.04
29359;BME280;16347;53.232;6.556;2022-08-01T08:45:46;101845.84;;;20.65;53.09
29359;BME280;16347;53.232;6.556;2022-08-01T08:48:31;101847.19;;;20.76;52.15
29359;BME280;16347;53.232;6.556;2022-08-01T08:51:04;101846.78;;;20.79;51.70
29359;BME280;16347;53.232;6.556;2022-08-01T08:53:38;101850.28;;;20.87;52.63
29359;BME280;16347;53.232;6.556;2022-08-01T08:56:13;101851.91;;;20.82;51.14
29359;BME280;16347;53.232;6.556;2022-08-01T08:58:45;101854.91;;;20.80;51.37
29359;BME280;16347;53.232;6.556;2022-08-01T09:01:16;101850.47;;;20.86;51.73
29359;BME280;16347;53.232;6.556;2022-08-01T09:03:50;101857.25;;;20.83;52.13
29359;BME280;16347;53.232;6.556;2022-08-01T09:06:22;101873.66;;;20.85;51.42
29359;BME280;16347;53.232;6.556;2022-08-01T09:08:55;101867.84;;;20.80;51.35
29359;BME280;16347;53.232;6.556;2022-08-01T09:11:26;101867.16;;;20.71;51.00
29359;BME280;16347;53.232;6.556;2022-08-01T09:14:05;101882.03;;;20.70;51.78
29359;BME280;16347;53.232;6.556;2022-08-01T09:16:39;101895.03;;;20.76;51.96
29359;BME280;16347;53.232;6.556;2022-08-01T09:19:19;101889.38;;;20.84;51.40
29359;BME280;16347;53.232;6.556;2022-08-01T09:22:10;101888.97;;;20.87;51.17
29359;BME280;16347;53.232;6.556;2022-08-01T09:24:42;101891.88;;;20.79;50.80
29359;BME280;16347;53.232;6.556;2022-08-01T09:27:27;101899.94;;;20.74;51.64
29359;BME280;16347;53.232;6.556;2022-08-01T09:30:09;101893.00;;;20.85;51.38
29359;BME280;16347;53.232;6.556;2022-08-01T09:32:58;101901.59;;;20.96;50.71
29359;BME280;16347;53.232;6.556;2022-08-01T09:35:54;101908.63;;;20.71;49.25
29359;BME280;16347;53.232;6.556;2022-08-01T09:38:27;101906.00;;;20.63;50.01
29359;BME280;16347;53.232;6.556;2022-08-01T09:40:58;101916.06;;;20.71;49.60
29359;BME280;16347;53.232;6.556;2022-08-01T09:43:30;101902.47;;;20.76;49.78
29359;BME280;16347;53.232;6.556;2022-08-01T09:46:09;101902.53;;;20.82;50.64
29359;BME280;16347;53.232;6.556;2022-08-01T09:48:55;101909.44;;;20.93;50.32
29359;BME280;16347;53.232;6.556;2022-08-01T09:51:30;101916.13;;;20.77;49.19
29359;BME280;16347;53.232;6.556;2022-08-01T09:54:33;101907.59;;;20.79;50.17
29359;BME280;16347;53.232;6.556;2022-08-01T09:57:12;101915.13;;;20.85;50.15
29359;BME280;16347;53.232;6.556;2022-08-01T09:59:45;101908.78;;;20.91;49.79
29359;BME280;16347;53.232;6.556;2022-08-01T10:02:32;101912.09;;;21.08;50.00
29359;BME280;16347;53.232;6.556;2022-08-01T10:05:05;101909.00;;;21.17;49.93
29359;BME280;16347;53.232;6.556;2022-08-01T10:07:55;101916.03;;;21.20;49.14
29359;BME280;16347;53.232;6.556;2022-08-01T10:10:27;101918.97;;;21.12;48.30
29359;BME280;16347;53.232;6.556;2022-08-01T10:13:00;101921.13;;;21.16;49.30
29359;BME280;16347;53.232;6.556;2022-08-01T10:15:32;101911.97;;;21.16;48.07
29359;BME280;16347;53.232;6.556;2022-08-01T10:18:07;101917.50;;;21.16;48.63
29359;BME280;16347;53.232;6.556;2022-08-01T10:20:47;101917.31;;;21.17;48.08
29359;BME280;16347;53.232;6.556;2022-08-01T10:23:18;101914.78;;;21.22;47.60
29359;BME280;16347;53.232;6.556;2022-08-01T10:26:07;101910.84;;;21.38;48.11
29359;BME280;16347;53.232;6.556;2022-08-01T10:28:37;101920.00;;;21.38;48.18
29359;BME280;16347;53.232;6.556;2022-08-01T10:31:08;101923.38;;;21.34;47.88
29359;BME280;16347;53.232;6.556;2022-08-01T10:33:41;101924.56;;;21.18;47.38
29359;BME280;16347;53.232;6.556;2022-08-01T10:36:20;101921.16;;;21.23;48.36
29359;BME280;16347;53.232;6.556;2022-08-01T10:38:52;101911.38;;;21.20;46.87
29359;BME280;16347;53.232;6.556;2022-08-01T10:41:21;101912.69;;;21.24;46.51
29359;BME280;16347;53.232;6.556;2022-08-01T10:43:51;101915.25;;;21.32;47.21
29359;BME280;16347;53.232;6.556;2022-08-01T10:46:20;101911.75;;;21.45;46.69
29359;BME280;16347;53.232;6.556;2022-08-01T10:48:54;101911.34;;;21.48;46.13
29359;BME280;16347;53.232;6.556;2022-08-01T10:51:26;101918.16;;;21.52;44.39
29359;BME280;16347;53.232;6.556;2022-08-01T10:54:17;101917.69;;;21.42;44.29
29359;BME280;16347;53.232;6.556;2022-08-01T10:56:53;101914.50;;;21.45;44.60
29359;BME280;16347;53.232;6.556;2022-08-01T10:59:27;101922.44;;;21.55;46.29
29359;BME280;16347;53.232;6.556;2022-08-01T11:02:27;101914.19;;;21.68;46.11
29359;BME280;16347;53.232;6.556;2022-08-01T11:05:04;101920.09;;;21.52;43.49
29359;BME280;16347;53.232;6.556;2022-08-01T11:07:52;101925.19;;;21.55;44.48
29359;BME280;16347;53.232;6.556;2022-08-01T11:10:31;101918.41;;;21.57;46.47
29359;BME280;16347;53.232;6.556;2022-08-01T11:13:03;101915.66;;;21.64;45.65
29359;BME280;16347;53.232;6.556;2022-08-01T11:15:37;101932.09;;;21.72;44.23
29359;BME280;16347;53.232;6.556;2022-08-01T11:18:34;101927.63;;;21.71;43.89
29359;BME280;16347;53.232;6.556;2022-08-01T11:21:17;101934.22;;;21.70;45.68
29359;BME280;16347;53.232;6.556;2022-08-01T11:24:11;101929.97;;;21.74;45.02
29359;BME280;16347;53.232;6.556;2022-08-01T11:27:15;101929.41;;;21.85;43.93
29359;BME280;16347;53.232;6.556;2022-08-01T11:30:22;101928.97;;;21.81;43.10
29359;BME280;16347;53.232;6.556;2022-08-01T11:32:54;101935.34;;;21.82;42.36
29359;BME280;16347;53.232;6.556;2022-08-01T11:35:38;101937.25;;;21.81;42.19
29359;BME280;16347;53.232;6.556;2022-08-01T11:38:28;101938.84;;;21.63;42.41
29359;BME280;16347;53.232;6.556;2022-08-01T11:41:09;101932.97;;;21.72;44.23
29359;BME280;16347;53.232;6.556;2022-08-01T11:43:56;101929.84;;;21.88;43.58
29359;BME280;16347;53.232;6.556;2022-08-01T11:46:51;101930.50;;;21.90;41.74
29359;BME280;16347;53.232;6.556;2022-08-01T11:49:26;101932.88;;;21.93;42.71
29359;BME280;16347;53.232;6.556;2022-08-01T11:51:57;101932.03;;;21.99;43.05
29359;BME280;16347;53.232;6.556;2022-08-01T11:54:29;101932.22;;;21.91;41.92
29359;BME280;16347;53.232;6.556;2022-08-01T11:57:05;101929.38;;;21.78;41.19
29359;BME280;16347;53.232;6.556;2022-08-01T11:59:39;101931.91;;;21.80;41.61
29359;BME280;16347;53.232;6.556;2022-08-01T12:02:40;101928.72;;;21.83;40.78
29359;BME280;16347;53.232;6.556;2022-08-01T12:05:14;101923.63;;;21.86;41.19
29359;BME280;16347;53.232;6.556;2022-08-01T12:07:52;101933.53;;;21.95;42.43
29359;BME280;16347;53.232;6.556;2022-08-01T12:10:27;101933.78;;;22.14;43.07
29359;BME280;16347;53.232;6.556;2022-08-01T12:13:14;101939.38;;;22.33;40.82
29359;BME280;16347;53.232;6.556;2022-08-01T12:15:46;101933.41;;;22.36;39.33
29359;BME280;16347;53.232;6.556;2022-08-01T12:18:23;101926.22;;;22.48;41.40
29359;BME280;16347;53.232;6.556;2022-08-01T12:21:02;101914.88;;;22.43;40.78
29359;BME280;16347;53.232;6.556;2022-08-01T12:23:31;101935.59;;;22.47;40.09
29359;BME280;16347;53.232;6.556;2022-08-01T12:26:03;101926.22;;;22.62;41.34
29359;BME280;16347;53.232;6.556;2022-08-01T12:28:39;101926.06;;;22.83;41.60
29359;BME280;16347;53.232;6.556;2022-08-01T12:31:07;101926.47;;;22.80;38.17
29359;BME280;16347;53.232;6.556;2022-08-01T12:33:40;101930.31;;;22.85;39.00
29359;BME280;16347;53.232;6.556;2022-08-01T12:36:12;101936.50;;;22.81;37.72
29359;BME280;16347;53.232;6.556;2022-08-01T12:38:43;101923.69;;;22.80;38.14
29359;BME280;16347;53.232;6.556;2022-08-01T12:41:17;101929.47;;;22.98;40.08
29359;BME280;16347;53.232;6.556;2022-08-01T12:43:48;101923.28;;;23.09;40.21
29359;BME280;16347;53.232;6.556;2022-08-01T12:46:19;101917.06;;;23.20;40.73
29359;BME280;16347;53.232;6.556;2022-08-01T12:48:49;101922.38;;;23.28;40.76
29359;BME280;16347;53.232;6.556;2022-08-01T12:51:21;101926.03;;;23.29;40.73
29359;BME280;16347;53.232;6.556;2022-08-01T12:53:52;101920.69;;;23.21;40.68
29359;BME280;16347;53.232;6.556;2022-08-01T12:56:32;101917.69;;;23.29;41.05
29359;BME280;16347;53.232;6.556;2022-08-01T13:02:31;101914.47;;;23.32;38.45
29359;BME280;16347;53.232;6.556;2022-08-01T13:05:04;101923.66;;;23.32;37.85
29359;BME280;16347;53.232;6.556;2022-08-01T13:07:37;101912.97;;;23.49;40.57
29359;BME280;16347;53.232;6.556;2022-08-01T13:10:14;101909.22;;;23.81;40.33
29359;BME280;16347;53.232;6.556;2022-08-01T13:12:53;101915.03;;;23.73;38.17
29359;BME280;16347;53.232;6.556;2022-08-01T13:15:26;101915.75;;;23.56;37.70
29359;BME280;16347;53.232;6.556;2022-08-01T13:18:21;101915.75;;;23.49;38.97
29359;BME280;16347;53.232;6.556;2022-08-01T13:21:12;101921.28;;;23.56;39.01
29359;BME280;16347;53.232;6.556;2022-08-01T13:24:02;101926.38;;;23.65;37.83
29359;BME280;16347;53.232;6.556;2022-08-01T13:26:43;101923.75;;;23.83;38.22